Time;durP1;ratioP1;P1;durP2;ratioP2;P2;SDS_P1;SDS_P2;PMS_P1;PMS_P2;Temp;Humidity;BMP_temperature;BMP_pressure;BME280_temperature;BME280_humidity;BME280_pressure;Samples;Min_cycle;Max_cycle;Signal;HPM_P1;HPM_P2
2022/06/22 00:00:00;;;;;;;3.00;2.20;;;13.40;99.90;;;;;;5053987;28;20210;-51
2022/06/22 00:02:36;;;;;;;2.63;2.42;;;13.40;99.90;;;;;;5046232;28;20193;-51
2022/06/22 00:05:12;;;;;;;3.45;2.42;;;13.30;99.90;;;;;;5054391;28;20253;-46
2022/06/22 00:07:45;;;;;;;2.95;2.55;;;13.40;99.90;;;;;;5056999;28;20242;-51
2022/06/22 00:10:21;;;;;;;3.63;3.33;;;13.20;99.90;;;;;;5056370;28;20238;-54
2022/06/22 00:12:51;;;;;;;3.22;2.47;;;13.30;99.90;;;;;;5043780;28;20421;-51
2022/06/22 00:15:38;;;;;;;2.83;2.63;;;13.30;99.90;;;;;;5056913;28;20422;-47
2022/06/22 00:18:23;;;;;;;2.10;2.00;;;13.30;99.90;;;;;;5046642;28;20242;-53
2022/06/22 00:20:54;;;;;;;2.85;2.38;;;13.40;99.90;;;;;;5056035;28;20195;-46
2022/06/22 00:23:26;;;;;;;2.72;2.53;;;13.40;99.90;;;;;;5051128;28;20201;-46
2022/06/22 00:26:04;;;;;;;5.18;2.78;;;13.40;99.90;;;;;;5059129;28;20537;-44
2022/06/22 00:28:51;;;;;;;3.08;2.83;;;13.40;99.90;;;;;;5053621;28;20329;-46
2022/06/22 00:31:40;;;;;;;4.63;3.25;;;13.30;99.90;;;;;;5052040;28;20556;-47
2022/06/22 00:34:10;;;;;;;2.60;2.38;;;13.10;99.90;;;;;;5047868;28;20445;-47
2022/06/22 00:37:03;;;;;;;4.47;3.38;;;13.10;99.90;;;;;;5054412;28;20499;-47
2022/06/22 00:39:30;;;;;;;4.15;2.95;;;13.00;99.90;;;;;;5053279;28;20237;-46
2022/06/22 00:42:15;;;;;;;3.30;3.05;;;13.00;99.90;;;;;;5056113;28;20221;-46
2022/06/22 00:45:09;;;;;;;6.53;2.90;;;12.90;99.90;;;;;;5051473;28;20224;-46
2022/06/22 00:47:44;;;;;;;3.40;3.10;;;12.90;99.90;;;;;;5053301;28;20200;-45
2022/06/22 00:50:20;;;;;;;7.85;3.70;;;12.80;99.90;;;;;;5053705;28;20233;-49
2022/06/22 00:52:54;;;;;;;5.78;4.20;;;12.60;99.90;;;;;;5039971;28;20195;-47
2022/06/22 00:55:42;;;;;;;4.72;3.38;;;12.60;99.90;;;;;;5053177;28;20274;-46
2022/06/22 00:58:25;;;;;;;6.60;3.97;;;12.60;99.90;;;;;;5054948;28;20204;-47
2022/06/22 01:01:02;;;;;;;3.38;3.08;;;12.70;99.90;;;;;;5045196;28;20195;-49
2022/06/22 01:03:35;;;;;;;4.90;4.50;;;12.80;99.90;;;;;;5053237;28;20426;-45
2022/06/22 01:06:15;;;;;;;4.10;3.80;;;12.80;99.90;;;;;;5054412;28;20234;-50
2022/06/22 01:08:57;;;;;;;3.80;3.50;;;12.80;99.90;;;;;;5050753;28;20200;-50
2022/06/22 01:14:36;;;;;;;8.77;4.85;;;12.80;99.90;;;;;;5047235;28;20235;-50
2022/06/22 01:17:11;;;;;;;5.75;3.75;;;12.70;99.90;;;;;;5051207;28;20203;-51
2022/06/22 01:19:56;;;;;;;7.70;3.88;;;12.50;99.90;;;;;;5052407;28;20250;-51
2022/06/22 01:22:44;;;;;;;5.68;4.03;;;12.60;99.90;;;;;;5053800;28;20203;-51
2022/06/22 01:25:20;;;;;;;4.32;3.88;;;12.60;99.90;;;;;;5052263;28;20449;-54
2022/06/22 01:27:47;;;;;;;4.43;4.00;;;12.60;99.90;;;;;;5042067;28;20256;-50
2022/06/22 01:30:29;;;;;;;6.30;4.78;;;12.60;99.90;;;;;;5038672;28;20242;-48
2022/06/22 01:32:56;;;;;;;5.15;4.65;;;12.60;99.90;;;;;;5037568;28;20200;-47
2022/06/22 01:35:37;;;;;;;6.60;4.68;;;12.60;99.90;;;;;;5052956;28;20237;-47
2022/06/22 01:38:26;;;;;;;6.10;4.38;;;12.60;99.90;;;;;;5054137;28;20422;-51
2022/06/22 01:41:27;;;;;;;5.00;4.05;;;12.60;99.90;;;;;;5041491;28;20202;-50
2022/06/22 01:44:03;;;;;;;5.05;3.95;;;12.50;99.90;;;;;;5044487;28;20218;-50
2022/06/22 01:47:00;;;;;;;4.65;4.13;;;12.50;99.90;;;;;;5047196;28;20401;-51
2022/06/22 01:49:40;;;;;;;5.22;4.22;;;12.40;99.90;;;;;;5018335;28;20211;-47
2022/06/22 01:52:21;;;;;;;11.45;5.30;;;12.40;99.90;;;;;;5051358;28;20199;-51
2022/06/22 01:54:57;;;;;;;7.63;4.05;;;12.40;99.90;;;;;;5043306;28;20234;-50
2022/06/22 01:58:14;;;;;;;6.60;4.85;;;12.40;99.90;;;;;;5047579;28;20206;-47
2022/06/22 02:00:53;;;;;;;4.93;3.92;;;12.40;99.90;;;;;;5035288;28;20257;-51
2022/06/22 02:03:37;;;;;;;5.10;4.65;;;12.30;99.90;;;;;;5048316;28;20202;-51
2022/06/22 02:09:08;;;;;;;5.90;5.30;;;12.20;99.90;;;;;;5047068;28;20265;-49
2022/06/22 02:11:42;;;;;;;5.72;5.20;;;12.20;99.90;;;;;;5057330;28;20202;-50
2022/06/22 02:14:22;;;;;;;5.13;4.53;;;12.30;99.90;;;;;;5049077;28;20249;-52
2022/06/22 02:16:56;;;;;;;5.07;4.57;;;12.10;99.90;;;;;;5022277;28;20210;-52
2022/06/22 02:19:24;;;;;;;5.57;5.15;;;11.90;99.90;;;;;;5024291;28;20227;-53
2022/06/22 02:21:55;;;;;;;6.78;5.50;;;11.90;99.90;;;;;;5031813;28;20210;-54
2022/06/22 02:24:43;;;;;;;9.73;6.07;;;11.90;99.90;;;;;;5034753;28;20209;-47
2022/06/22 02:27:13;;;;;;;7.82;5.35;;;12.00;99.90;;;;;;5045782;28;20248;-52
2022/06/22 02:29:48;;;;;;;5.18;4.68;;;12.00;99.90;;;;;;5048505;28;20234;-52
2022/06/22 02:32:24;;;;;;;5.75;5.25;;;12.00;99.90;;;;;;5045999;28;20496;-52
2022/06/22 02:34:55;;;;;;;8.98;5.65;;;12.00;99.90;;;;;;5041852;28;20223;-48
2022/06/22 02:37:26;;;;;;;8.38;5.75;;;12.10;99.90;;;;;;5047469;28;20199;-48
2022/06/22 02:39:58;;;;;;;5.07;4.57;;;12.10;99.90;;;;;;5047605;28;20543;-49
2022/06/22 02:45:14;;;;;;;7.50;5.85;;;12.20;99.90;;;;;;5044243;28;20223;-51
2022/06/22 02:47:56;;;;;;;5.18;4.57;;;12.20;99.90;;;;;;5054613;28;20216;-50
2022/06/22 02:50:43;;;;;;;5.15;4.75;;;12.10;99.90;;;;;;5046790;28;20375;-47
2022/06/22 02:53:23;;;;;;;5.20;4.05;;;11.90;99.90;;;;;;5053303;28;20234;-53
2022/06/22 02:55:52;;;;;;;6.45;4.10;;;12.00;99.90;;;;;;5039773;28;20225;-50
2022/06/22 02:58:33;;;;;;;6.53;5.68;;;11.90;99.90;;;;;;5052006;28;20260;-51
2022/06/22 03:01:13;;;;;;;5.30;4.60;;;12.00;99.90;;;;;;5043886;28;20202;-51
2022/06/22 03:03:45;;;;;;;6.55;5.03;;;12.00;99.90;;;;;;5050068;28;20509;-50
2022/06/22 03:06:14;;;;;;;4.93;4.25;;;11.90;99.90;;;;;;5038190;28;20549;-51
2022/06/22 03:08:41;;;;;;;6.47;5.50;;;12.00;99.90;;;;;;5048952;28;20571;-49
2022/06/22 03:11:11;;;;;;;4.80;4.38;;;12.10;99.90;;;;;;5046717;28;20207;-47
2022/06/22 03:13:45;;;;;;;4.85;4.40;;;12.30;99.90;;;;;;5051408;28;20348;-54
2022/06/22 03:16:21;;;;;;;6.93;5.15;;;12.30;99.90;;;;;;5048602;28;20242;-52
2022/06/22 03:18:50;;;;;;;5.75;5.20;;;12.40;99.90;;;;;;5037885;28;20200;-52
2022/06/22 03:21:18;;;;;;;6.60;5.28;;;12.50;99.90;;;;;;5045591;28;20204;-51
2022/06/22 03:24:06;;;;;;;7.18;4.70;;;12.70;99.90;;;;;;5046072;28;20187;-51
2022/06/22 03:26:44;;;;;;;5.50;4.75;;;12.90;99.90;;;;;;5050970;28;20693;-51
2022/06/22 03:29:35;;;;;;;6.65;5.13;;;13.00;99.90;;;;;;5045528;28;20368;-49
2022/06/22 03:32:13;;;;;;;12.88;5.25;;;12.90;99.90;;;;;;5056386;28;20245;-53
2022/06/22 03:34:49;;;;;;;7.22;5.68;;;13.10;99.90;;;;;;5046169;28;20284;-50
2022/06/22 03:37:43;;;;;;;5.43;4.93;;;13.90;99.90;;;;;;5044154;28;20217;-53
2022/06/22 03:40:15;;;;;;;4.20;3.90;;;14.50;99.90;;;;;;5053481;28;20196;-52
2022/06/22 03:42:49;;;;;;;6.25;4.95;;;14.80;99.90;;;;;;5052654;28;20208;-51
2022/06/22 03:45:24;;;;;;;4.93;3.90;;;15.60;99.90;;;;;;5048778;28;20226;-50
2022/06/22 03:48:00;;;;;;;14.23;4.20;;;16.20;99.90;;;;;;5047222;28;20201;-53
2022/06/22 03:50:27;;;;;;;7.72;4.35;;;16.80;99.90;;;;;;5053124;28;20434;-46
2022/06/22 03:53:10;;;;;;;4.93;4.03;;;17.30;99.90;;;;;;5058228;28;20202;-50
2022/06/22 03:55:42;;;;;;;4.40;3.57;;;17.60;99.90;;;;;;5052918;28;20466;-47
2022/06/22 03:58:12;;;;;;;4.67;4.27;;;17.50;99.90;;;;;;5056951;28;20444;-50
2022/06/22 04:00:42;;;;;;;5.53;5.07;;;17.60;99.90;;;;;;5049177;28;20508;-47
2022/06/22 04:03:12;;;;;;;4.50;3.20;;;17.00;99.90;;;;;;5044123;28;20431;-52
2022/06/22 04:05:47;;;;;;;6.60;4.37;;;16.10;99.90;;;;;;5040042;28;20478;-53
2022/06/22 04:08:32;;;;;;;7.68;5.20;;;15.40;99.90;;;;;;5048793;28;20501;-51
2022/06/22 04:11:17;;;;;;;5.25;3.60;;;15.00;99.90;;;;;;5037880;28;20285;-50
2022/06/22 04:13:52;;;;;;;6.38;5.88;;;14.90;99.90;;;;;;5051060;28;20227;-53
2022/06/22 04:16:24;;;;;;;4.32;3.92;;;15.00;99.90;;;;;;5047166;28;20232;-52
2022/06/22 04:19:03;;;;;;;7.10;3.60;;;15.00;99.90;;;;;;5044589;28;20400;-49
2022/06/22 04:21:38;;;;;;;4.65;4.10;;;15.00;99.90;;;;;;5054457;28;20195;-52
2022/06/22 04:24:17;;;;;;;5.45;4.35;;;15.10;99.90;;;;;;5047326;28;20196;-52
2022/06/22 04:26:50;;;;;;;8.20;4.40;;;15.00;99.90;;;;;;5056394;28;20213;-51
2022/06/22 04:29:21;;;;;;;3.78;3.38;;;15.20;99.90;;;;;;5040624;28;20434;-49
2022/06/22 04:31:57;;;;;;;5.13;4.05;;;15.20;99.90;;;;;;5043447;28;20212;-52
2022/06/22 04:34:53;;;;;;;9.57;7.18;;;15.20;99.90;;;;;;5042503;28;20221;-51
2022/06/22 04:37:41;;;;;;;4.97;4.57;;;15.40;99.90;;;;;;5051436;28;20399;-48
2022/06/22 04:40:21;;;;;;;7.25;6.65;;;15.40;99.90;;;;;;5052759;28;20196;-52
2022/06/22 04:43:00;;;;;;;4.80;4.10;;;15.60;99.90;;;;;;5045950;28;20402;-50
2022/06/22 04:45:39;;;;;;;6.47;4.70;;;15.70;99.90;;;;;;5052050;28;20459;-47
2022/06/22 04:48:21;;;;;;;5.05;4.38;;;15.70;99.90;;;;;;5055576;28;20439;-48
2022/06/22 04:50:52;;;;;;;4.10;3.72;;;15.70;99.90;;;;;;5037991;28;20213;-51
2022/06/22 04:53:29;;;;;;;4.43;4.13;;;15.80;99.90;;;;;;5054145;28;20202;-52
2022/06/22 04:56:01;;;;;;;6.47;4.85;;;15.80;99.90;;;;;;5041842;28;20484;-52
2022/06/22 04:58:36;;;;;;;8.20;5.27;;;15.80;99.90;;;;;;5043584;28;20448;-47
2022/06/22 05:01:05;;;;;;;8.93;4.53;;;16.00;99.90;;;;;;5054431;28;20437;-47
2022/06/22 05:03:34;;;;;;;4.43;4.13;;;16.30;99.90;;;;;;5045238;28;20417;-47
2022/06/22 05:06:07;;;;;;;5.53;4.43;;;16.40;99.90;;;;;;5050134;28;20773;-48
2022/06/22 05:08:40;;;;;;;5.43;4.20;;;16.50;99.90;;;;;;5039387;28;20702;-47
2022/06/22 05:11:30;;;;;;;6.07;4.40;;;16.70;99.90;;;;;;5057774;28;20440;-50
2022/06/22 05:13:59;;;;;;;4.87;4.30;;;16.90;99.90;;;;;;5043859;28;20545;-50
2022/06/22 05:16:32;;;;;;;4.60;4.20;;;17.00;99.90;;;;;;5043323;28;20480;-52
2022/06/22 05:19:00;;;;;;;8.13;6.80;;;17.20;99.90;;;;;;5047648;28;20434;-51
2022/06/22 05:21:38;;;;;;;5.87;3.70;;;17.40;99.90;;;;;;5048836;28;20414;-47
2022/06/22 05:24:16;;;;;;;4.73;3.23;;;17.50;99.90;;;;;;5048536;28;20444;-51
2022/06/22 05:26:45;;;;;;;6.60;3.77;;;17.80;99.90;;;;;;5052900;28;20412;-49
2022/06/22 05:29:25;;;;;;;8.57;4.37;;;18.20;99.90;;;;;;5049831;28;20694;-47
2022/06/22 05:31:59;;;;;;;5.20;3.80;;;18.40;99.90;;;;;;5038152;28;20652;-49
2022/06/22 05:34:33;;;;;;;7.10;5.17;;;18.60;99.90;;;;;;5045778;28;20460;-49
2022/06/22 05:37:24;;;;;;;8.40;7.60;;;18.70;99.90;;;;;;5029640;28;20462;-51
2022/06/22 05:39:52;;;;;;;4.73;4.00;;;18.70;99.90;;;;;;5033734;28;20440;-51
2022/06/22 05:42:20;;;;;;;6.67;4.00;;;18.80;99.90;;;;;;5030673;28;20442;-53
2022/06/22 05:44:49;;;;;;;6.87;3.53;;;19.00;99.90;;;;;;5031995;28;20453;-54
2022/06/22 05:47:28;;;;;;;4.93;3.33;;;19.20;99.90;;;;;;5030441;28;20694;-53
2022/06/22 05:50:11;;;;;;;8.70;5.30;;;18.90;99.90;;;;;;5029806;28;20441;-53
2022/06/22 05:52:41;;;;;;;5.77;4.00;;;18.80;99.90;;;;;;5055372;28;20419;-55
2022/06/22 05:55:22;;;;;;;5.30;4.27;;;18.90;99.90;;;;;;5048443;28;20796;-50
2022/06/22 05:58:32;;;;;;;3.63;2.83;;;19.10;99.90;;;;;;5048085;28;20445;-54
2022/06/22 06:01:01;;;;;;;4.97;2.97;;;19.30;99.90;;;;;;5043471;28;20441;-54
2022/06/22 06:03:33;;;;;;;3.83;2.90;;;19.50;99.90;;;;;;5041741;28;20448;-53
2022/06/22 06:06:28;;;;;;;3.13;2.40;;;19.70;99.90;;;;;;5055206;28;20469;-55
2022/06/22 06:09:03;;;;;;;4.83;2.97;;;19.90;99.90;;;;;;5037986;28;20448;-49
2022/06/22 06:11:39;;;;;;;2.40;2.20;;;20.00;99.90;;;;;;5054357;28;20433;-51
2022/06/22 06:14:13;;;;;;;3.40;2.80;;;20.40;99.90;;;;;;5044670;28;20775;-50
2022/06/22 06:16:47;;;;;;;7.33;2.30;;;20.40;99.90;;;;;;5042673;28;20780;-54
2022/06/22 06:19:25;;;;;;;3.13;2.80;;;20.40;99.90;;;;;;5041537;28;20487;-54
2022/06/22 06:21:58;;;;;;;3.33;2.30;;;20.60;99.90;;;;;;5044809;28;20432;-52
2022/06/22 06:27:40;;;;;;;2.23;2.03;;;21.80;99.90;;;;;;5054528;28;20435;-50
2022/06/22 06:30:21;;;;;;;2.13;1.90;;;22.20;99.90;;;;;;5047410;28;20471;-53
2022/06/22 06:33:03;;;;;;;1.70;1.60;;;22.60;99.90;;;;;;5034670;28;20461;-52
2022/06/22 06:35:41;;;;;;;4.00;3.10;;;22.60;99.90;;;;;;5047717;28;20450;-53
2022/06/22 06:38:34;;;;;;;2.43;1.67;;;22.80;99.90;;;;;;5047542;28;20430;-55
2022/06/22 06:41:20;;;;;;;1.90;1.70;;;23.10;99.90;;;;;;5048630;28;20430;-54
2022/06/22 06:44:03;;;;;;;2.37;1.70;;;23.30;99.90;;;;;;5039686;28;20429;-53
2022/06/22 06:46:38;;;;;;;5.80;1.70;;;23.40;99.90;;;;;;5050084;28;20427;-53
2022/06/22 06:49:14;;;;;;;2.10;1.67;;;23.70;99.90;;;;;;5052116;28;20426;-52
2022/06/22 06:51:55;;;;;;;2.13;1.93;;;24.40;99.90;;;;;;5050544;28;20425;-55
2022/06/22 06:54:28;;;;;;;4.30;1.70;;;25.10;99.90;;;;;;5051999;28;20478;-54
2022/06/22 06:57:03;;;;;;;2.87;1.47;;;26.50;98.90;;;;;;5052827;28;20829;-52
2022/06/22 06:59:31;;;;;;;1.83;1.70;;;27.80;95.70;;;;;;5050260;28;20435;-55
2022/06/22 07:02:05;;;;;;;4.07;1.70;;;27.60;92.50;;;;;;5048096;28;20409;-53
2022/06/22 07:04:34;;;;;;;1.77;1.67;;;27.90;91.40;;;;;;5055112;28;20523;-52
2022/06/22 07:07:06;;;;;;;3.33;1.77;;;28.90;87.40;;;;;;5047997;28;20660;-49
2022/06/22 07:09:37;;;;;;;1.27;1.20;;;30.30;82.00;;;;;;5055668;28;20429;-53
2022/06/22 07:12:23;;;;;;;1.63;1.40;;;32.50;69.50;;;;;;5048385;28;20775;-54
2022/06/22 07:14:51;;;;;;;1.23;1.13;;;34.10;62.30;;;;;;5040922;28;20506;-55
2022/06/22 07:17:21;;;;;;;1.57;1.47;;;35.00;56.00;;;;;;5047749;28;20496;-52
2022/06/22 07:19:56;;;;;;;1.10;1.00;;;34.60;50.30;;;;;;5037202;28;20432;-55
2022/06/22 07:22:35;;;;;;;2.30;1.50;;;35.40;49.00;;;;;;5049647;28;20640;-53
2022/06/22 07:25:13;;;;;;;3.60;1.60;;;34.40;45.60;;;;;;5051701;28;20678;-53
2022/06/22 07:28:08;;;;;;;1.87;1.27;;;34.50;45.20;;;;;;5049948;28;20940;-54
2022/06/22 07:30:42;;;;;;;1.10;1.00;;;34.10;45.50;;;;;;5051708;28;20486;-54
2022/06/22 07:33:44;;;;;;;7.70;1.20;;;32.20;46.60;;;;;;5051569;28;20434;-53
2022/06/22 07:36:43;;;;;;;3.37;1.00;;;30.30;50.10;;;;;;5032396;28;20489;-54
2022/06/22 07:39:29;;;;;;;1.10;1.00;;;29.90;51.80;;;;;;5014485;28;20438;-54
2022/06/22 07:41:56;;;;;;;1.53;1.23;;;31.50;48.60;;;;;;5043422;28;20423;-54
2022/06/22 07:44:28;;;;;;;7.73;1.40;;;32.90;47.50;;;;;;5050910;28;20436;-52
2022/06/22 07:47:01;;;;;;;2.70;2.13;;;34.40;45.50;;;;;;5044090;28;20433;-51
2022/06/22 07:49:34;;;;;;;2.70;1.60;;;35.70;44.20;;;;;;5050014;28;20444;-52
2022/06/22 07:52:07;;;;;;;1.33;1.20;;;35.80;45.20;;;;;;5046845;28;20444;-50
2022/06/22 07:55:17;;;;;;;1.10;1.00;;;38.00;43.50;;;;;;5048562;28;20456;-52
2022/06/22 07:58:15;;;;;;;1.83;0.97;;;38.80;38.80;;;;;;5056185;28;20826;-52
2022/06/22 08:00:45;;;;;;;2.97;1.40;;;39.40;38.30;;;;;;5050241;28;20439;-54
2022/06/22 08:03:36;;;;;;;1.50;1.23;;;39.80;38.30;;;;;;5050926;28;20428;-53
2022/06/22 08:06:08;;;;;;;1.50;1.30;;;41.90;37.70;;;;;;5043504;28;20460;-53
2022/06/22 08:08:52;;;;;;;1.70;1.60;;;42.60;36.10;;;;;;5050346;28;20471;-54
2022/06/22 08:11:39;;;;;;;1.07;1.00;;;42.40;35.20;;;;;;5051082;28;20452;-51
2022/06/22 08:14:28;;;;;;;0.90;0.90;;;42.70;33.90;;;;;;5048712;28;20431;-55
2022/06/22 08:16:58;;;;;;;1.80;1.23;;;42.80;33.40;;;;;;5043182;28;20500;-53
2022/06/22 08:19:30;;;;;;;1.47;0.97;;;41.60;34.60;;;;;;5048243;28;20505;-48
2022/06/22 08:22:04;;;;;;;0.70;0.70;;;40.90;34.80;;;;;;5052618;28;20433;-49
2022/06/22 08:24:37;;;;;;;0.90;0.90;;;40.10;35.10;;;;;;5041417;28;20751;-55
2022/06/22 08:27:06;;;;;;;2.20;1.40;;;40.90;35.50;;;;;;5051393;28;20433;-54
2022/06/22 08:29:34;;;;;;;1.40;1.30;;;40.60;35.50;;;;;;5053167;28;20491;-56
2022/06/22 08:32:10;;;;;;;1.20;1.10;;;40.30;35.20;;;;;;5054651;28;20490;-54
2022/06/22 08:34:59;;;;;;;1.17;1.07;;;41.60;35.10;;;;;;5042670;28;20679;-55
2022/06/22 08:37:34;;;;;;;2.13;1.33;;;41.80;34.20;;;;;;5050265;28;20807;-54
2022/06/22 08:40:17;;;;;;;2.30;1.73;;;40.30;34.90;;;;;;5056830;28;20424;-56
2022/06/22 08:43:29;;;;;;;1.03;1.03;;;41.60;35.10;;;;;;5051330;28;20484;-52
2022/06/22 08:46:21;;;;;;;1.37;1.17;;;42.10;34.20;;;;;;4955927;29;20483;-56
2022/06/22 08:48:55;;;;;;;1.93;1.10;;;42.90;34.20;;;;;;4958200;29;20464;-53
2022/06/22 08:51:59;;;;;;;1.17;1.07;;;43.10;33.30;;;;;;5024677;28;20766;-55
2022/06/22 08:54:33;;;;;;;1.10;1.00;;;44.20;32.90;;;;;;5053147;28;20478;-52
2022/06/22 08:57:21;;;;;;;1.67;1.40;;;43.70;33.40;;;;;;5050674;28;20469;-55
2022/06/22 09:00:10;;;;;;;0.97;0.97;;;43.60;33.00;;;;;;5045451;28;20520;-55
2022/06/22 09:02:41;;;;;;;1.30;1.03;;;43.60;32.30;;;;;;5052614;28;20647;-51
2022/06/22 09:05:30;;;;;;;2.80;1.17;;;43.60;32.80;;;;;;5053838;28;20485;-53
2022/06/22 09:08:19;;;;;;;2.60;2.40;;;44.40;32.10;;;;;;5042859;28;20441;-53
2022/06/22 09:11:02;;;;;;;1.77;1.67;;;43.10;33.60;;;;;;5042602;28;20464;-54
2022/06/22 09:13:47;;;;;;;3.50;2.43;;;43.20;33.00;;;;;;5052747;28;20747;-52
2022/06/22 09:16:17;;;;;;;1.70;1.10;;;43.40;33.00;;;;;;5055024;28;20487;-55
2022/06/22 09:18:52;;;;;;;1.17;1.07;;;42.50;33.10;;;;;;5049927;28;20434;-53
2022/06/22 09:21:34;;;;;;;1.27;1.17;;;42.10;33.50;;;;;;5057264;28;20452;-54
2022/06/22 09:24:23;;;;;;;1.47;1.37;;;41.20;34.10;;;;;;5048093;28;20437;-54
2022/06/22 09:27:05;;;;;;;1.30;1.10;;;41.10;33.80;;;;;;5043525;28;20452;-53
2022/06/22 09:29:57;;;;;;;3.50;1.10;;;41.30;33.80;;;;;;5050182;28;20541;-53
2022/06/22 09:32:49;;;;;;;0.80;0.80;;;41.00;34.10;;;;;;5050412;28;20528;-51
2022/06/22 09:35:51;;;;;;;1.53;1.00;;;39.40;34.80;;;;;;5054382;28;20456;-52
2022/06/22 09:38:42;;;;;;;2.40;1.10;;;38.00;37.40;;;;;;5046165;28;20481;-53
2022/06/22 09:41:36;;;;;;;1.90;1.30;;;34.80;40.50;;;;;;5044987;28;20448;-54
2022/06/22 09:44:34;;;;;;;3.57;1.83;;;32.50;42.50;;;;;;5045396;28;20580;-48
2022/06/22 09:47:26;;;;;;;2.00;1.60;;;30.90;44.30;;;;;;5048420;28;20436;-53
2022/06/22 09:50:14;;;;;;;2.53;1.40;;;30.20;46.30;;;;;;5047539;28;20448;-48
2022/06/22 09:52:54;;;;;;;3.63;1.23;;;29.50;47.50;;;;;;5057651;28;20438;-53
2022/06/22 09:58:57;;;;;;;1.63;1.00;;;28.70;47.50;;;;;;5048615;28;20438;-51
2022/06/22 10:02:00;;;;;;;3.00;1.20;;;28.10;48.50;;;;;;5053041;28;20444;-51
2022/06/22 10:04:42;;;;;;;1.10;1.00;;;27.90;49.70;;;;;;5052893;28;20492;-52
2022/06/22 10:07:11;;;;;;;1.27;1.17;;;27.70;49.00;;;;;;5049419;28;20739;-55
2022/06/22 10:09:38;;;;;;;1.13;1.03;;;27.60;48.60;;;;;;5056279;28;20756;-55
2022/06/22 10:12:34;;;;;;;2.43;1.23;;;27.50;48.90;;;;;;5049322;28;20510;-52
2022/06/22 10:15:58;;;;;;;3.90;1.53;;;27.10;49.60;;;;;;5040941;28;20462;-54
2022/06/22 10:18:52;;;;;;;4.17;1.40;;;27.10;50.60;;;;;;4994124;28;20948;-54
2022/06/22 10:21:48;;;;;;;3.37;1.43;;;27.20;51.20;;;;;;4980098;28;20403;-56
2022/06/22 10:24:18;;;;;;;1.50;1.20;;;27.30;51.20;;;;;;5044282;28;20437;-50
2022/06/22 10:27:05;;;;;;;1.63;1.40;;;27.50;49.70;;;;;;5056409;28;20818;-52
2022/06/22 10:29:48;;;;;;;1.20;1.10;;;27.10;50.40;;;;;;5048501;28;20458;-54
2022/06/22 10:33:00;;;;;;;2.10;1.20;;;26.80;51.00;;;;;;5050693;28;20855;-49
2022/06/22 10:36:06;;;;;;;1.53;1.43;;;26.20;51.40;;;;;;5049298;28;20509;-52
2022/06/22 10:38:58;;;;;;;1.40;1.30;;;25.90;52.30;;;;;;5014383;28;20428;-52
2022/06/22 10:45:10;;;;;;;1.87;1.63;;;26.00;52.80;;;;;;5049494;28;20425;-51
2022/06/22 10:48:05;;;;;;;1.20;1.03;;;26.30;53.50;;;;;;5055073;28;20458;-51
2022/06/22 10:50:47;;;;;;;1.30;1.20;;;26.30;54.20;;;;;;5048212;28;20408;-55
2022/06/22 10:53:49;;;;;;;1.20;1.10;;;26.30;54.80;;;;;;5051935;28;20406;-52
2022/06/22 10:56:41;;;;;;;3.60;2.20;;;26.30;53.40;;;;;;5046332;28;20439;-49
2022/06/22 10:59:46;;;;;;;2.80;2.27;;;26.30;53.00;;;;;;5047514;28;20413;-55
2022/06/22 11:03:03;;;;;;;0.90;0.90;;;26.40;54.30;;;;;;5046209;28;20481;-51
2022/06/22 11:05:39;;;;;;;2.00;1.07;;;26.40;53.10;;;;;;5049554;28;20444;-51
2022/06/22 11:08:31;;;;;;;1.10;1.00;;;26.60;53.50;;;;;;5051485;28;20496;-55
2022/06/22 11:11:07;;;;;;;1.63;1.20;;;26.70;53.10;;;;;;5051779;28;20412;-55
2022/06/22 11:13:48;;;;;;;1.73;1.20;;;26.60;53.30;;;;;;5049201;28;20753;-53
2022/06/22 11:16:25;;;;;;;1.57;0.80;;;26.20;54.50;;;;;;5052997;28;20784;-51
2022/06/22 11:18:55;;;;;;;3.33;1.27;;;26.50;54.80;;;;;;5045434;28;20419;-53
2022/06/22 11:21:54;;;;;;;2.20;1.27;;;26.50;55.10;;;;;;5054938;28;20434;-55
2022/06/22 11:24:59;;;;;;;1.33;1.10;;;26.70;55.20;;;;;;5044841;28;20547;-51
2022/06/22 11:30:48;;;;;;;1.33;1.20;;;26.60;55.50;;;;;;5051190;28;20438;-56
2022/06/22 11:33:48;;;;;;;5.37;1.70;;;26.70;55.70;;;;;;5048843;28;20434;-55
2022/06/22 11:36:46;;;;;;;2.60;1.20;;;26.40;55.40;;;;;;5040973;28;20543;-55
2022/06/22 11:40:20;;;;;;;1.20;1.10;;;26.10;56.00;;;;;;5047757;28;20428;-52
2022/06/22 11:43:12;;;;;;;1.83;1.20;;;25.60;57.20;;;;;;5042392;28;20429;-51
2022/06/22 11:46:05;;;;;;;2.60;1.40;;;25.50;56.70;;;;;;5049638;28;20586;-52
2022/06/22 11:48:56;;;;;;;1.10;1.10;;;25.40;57.90;;;;;;5049157;28;20402;-48
2022/06/22 11:51:54;;;;;;;1.20;1.00;;;25.40;56.90;;;;;;5049280;28;20462;-53
2022/06/22 11:54:42;;;;;;;2.30;1.37;;;25.40;57.80;;;;;;5050439;28;20437;-49
2022/06/22 11:57:37;;;;;;;0.80;0.80;;;25.50;57.60;;;;;;5042416;28;20457;-49
2022/06/22 12:00:39;;;;;;;1.20;0.97;;;25.90;58.30;;;;;;5045305;28;20425;-50
2022/06/22 12:03:19;;;;;;;1.43;1.27;;;26.70;56.10;;;;;;5044923;28;20515;-49
2022/06/22 12:06:25;;;;;;;0.70;0.67;;;27.20;56.00;;;;;;5043044;28;20626;-54
2022/06/22 12:09:15;;;;;;;2.60;1.30;;;27.20;54.20;;;;;;5010356;28;20409;-51
2022/06/22 12:12:00;;;;;;;0.90;0.90;;;27.50;54.40;;;;;;5051636;28;20519;-54
2022/06/22 12:18:00;;;;;;;0.83;0.83;;;27.70;53.00;;;;;;5050646;28;20458;-51
2022/06/22 12:20:52;;;;;;;1.60;1.10;;;27.70;52.60;;;;;;5053122;28;20773;-53
2022/06/22 12:23:44;;;;;;;5.90;4.33;;;27.40;53.40;;;;;;5054412;28;20576;-54
2022/06/22 12:26:37;;;;;;;1.87;1.53;;;27.40;54.50;;;;;;5052585;28;20578;-55
2022/06/22 12:29:39;;;;;;;1.67;1.00;;;27.40;53.40;;;;;;5048444;28;20479;-53
2022/06/22 12:32:40;;;;;;;1.40;1.30;;;27.50;53.70;;;;;;5043440;28;20435;-51
2022/06/22 12:35:45;;;;;;;1.37;1.20;;;27.70;54.50;;;;;;5030880;28;20475;-55
2022/06/22 12:38:27;;;;;;;1.00;1.00;;;27.70;52.60;;;;;;5046026;28;20849;-55
2022/06/22 12:41:37;;;;;;;1.17;1.07;;;27.30;53.20;;;;;;5043833;28;20425;-50
2022/06/22 12:44:23;;;;;;;1.20;1.10;;;26.70;54.10;;;;;;5051839;28;20672;-51
2022/06/22 12:47:14;;;;;;;1.30;1.20;;;26.70;54.50;;;;;;5052814;28;20439;-49
2022/06/22 12:49:54;;;;;;;2.37;1.33;;;26.70;54.50;;;;;;5051273;28;20464;-51
2022/06/22 12:52:41;;;;;;;1.30;1.10;;;26.80;55.00;;;;;;5058137;28;20518;-52
2022/06/22 12:55:18;;;;;;;1.10;1.00;;;27.00;54.40;;;;;;5050417;28;20467;-52
2022/06/22 12:57:55;;;;;;;1.77;0.80;;;27.00;54.10;;;;;;5054004;28;20474;-54
2022/06/22 13:00:23;;;;;;;2.27;1.20;;;26.80;54.90;;;;;;5051161;28;20490;-54
2022/06/22 13:02:57;;;;;;;1.10;1.00;;;26.40;54.20;;;;;;5054052;28;20482;-50
2022/06/22 13:05:31;;;;;;;3.83;1.50;;;26.30;55.10;;;;;;5052047;28;20444;-53
2022/06/22 13:08:09;;;;;;;2.20;1.43;;;26.40;55.80;;;;;;5054356;28;20411;-56
2022/06/22 13:10:46;;;;;;;0.93;0.93;;;26.30;55.70;;;;;;5052636;28;20568;-51
2022/06/22 13:13:20;;;;;;;2.40;1.10;;;26.30;55.50;;;;;;5053583;28;20750;-51
2022/06/22 13:16:17;;;;;;;2.70;1.50;;;26.50;56.50;;;;;;5043400;28;20449;-48
2022/06/22 13:19:14;;;;;;;1.60;1.03;;;26.70;56.00;;;;;;5049958;28;20705;-52
2022/06/22 13:21:57;;;;;;;1.80;1.00;;;26.60;54.90;;;;;;5056524;28;20485;-52
2022/06/22 13:24:45;;;;;;;1.60;1.30;;;26.20;56.20;;;;;;5047327;28;20429;-55
2022/06/22 13:27:34;;;;;;;1.20;1.10;;;26.20;57.10;;;;;;5025909;28;20442;-53
2022/06/22 13:30:24;;;;;;;1.27;1.17;;;26.60;55.60;;;;;;5026227;28;20454;-52
2022/06/22 13:33:06;;;;;;;1.00;0.90;;;26.70;54.60;;;;;;5025655;28;20447;-53
2022/06/22 13:35:44;;;;;;;1.57;1.47;;;26.80;55.00;;;;;;5027496;28;20657;-56
2022/06/22 13:38:18;;;;;;;2.03;1.20;;;26.90;54.50;;;;;;5025363;28;20459;-53
2022/06/22 13:41:12;;;;;;;1.00;0.90;;;27.00;54.80;;;;;;5026560;28;20440;-54
2022/06/22 13:43:45;;;;;;;1.30;1.20;;;26.90;53.90;;;;;;5027551;28;20521;-54
2022/06/22 13:46:18;;;;;;;1.83;1.50;;;26.80;54.50;;;;;;5025188;28;20462;-54
2022/06/22 13:48:46;;;;;;;1.83;1.30;;;26.80;54.90;;;;;;5025114;28;20439;-48
2022/06/22 13:51:39;;;;;;;1.10;0.87;;;26.90;54.90;;;;;;5025561;28;20457;-52
2022/06/22 13:54:41;;;;;;;1.00;0.97;;;26.80;54.00;;;;;;5028357;28;20433;-55
2022/06/22 13:57:14;;;;;;;0.90;0.90;;;26.70;53.40;;;;;;5022429;28;20514;-49
2022/06/22 14:00:05;;;;;;;2.70;1.20;;;26.70;54.50;;;;;;5021194;28;20447;-53
2022/06/22 14:02:44;;;;;;;1.30;0.90;;;26.70;55.80;;;;;;5021936;28;20480;-54
2022/06/22 14:05:40;;;;;;;1.40;1.30;;;26.70;55.90;;;;;;5020782;28;20486;-47
2022/06/22 14:08:25;;;;;;;3.33;1.13;;;26.60;56.90;;;;;;4994703;28;20450;-55
2022/06/22 14:10:58;;;;;;;2.97;1.43;;;26.60;56.90;;;;;;5027454;28;20459;-50
2022/06/22 14:14:06;;;;;;;1.40;1.30;;;26.70;56.90;;;;;;5028026;28;20661;-51
2022/06/22 14:16:42;;;;;;;2.03;1.10;;;26.80;57.20;;;;;;5027429;28;20486;-54
2022/06/22 14:19:35;;;;;;;1.33;1.13;;;26.70;57.40;;;;;;5021796;28;20636;-51
2022/06/22 14:22:06;;;;;;;1.57;1.43;;;26.70;57.30;;;;;;5022834;28;20804;-56
2022/06/22 14:24:37;;;;;;;3.07;1.40;;;26.80;56.90;;;;;;5025443;28;20438;-55